DFFD/OUA METAR and TAF weather

Enter ICAO airport designator
Station Type Date Time Source
DFFD METAR 2022/11/30 11:00 UTC NOAA

DFFD 301100Z 08008KT 050V110 8000 NSC 33/06 Q1010 NOSIG


Station Type Date Time Source
DFFD Decoded METAR 2022/11/30 11:00 UTC NOAA

Ouagadougou, Burkina Faso (DFFD) 12-21N 001-31W 306M
Nov 30, 2022 - 06:00 AM EST / 2022.11.30 1100 UTC
Wind: from the E (080 degrees) at 9 MPH (8 KT) (direction variable):0
Visibility: 4 mile(s):0
Temperature: 91 F (33 C)
Dew Point: 42 F (6 C)
Relative Humidity: 18%
Pressure (altimeter): 29.83 in. Hg (1010 hPa)
ob: DFFD 301100Z 08008KT 050V110 8000 NSC 33/06 Q1010 NOSIG
cycle: 11

Station Type Date Time Source
DFFD TAF 2022/11/30 12:13 UTC NOAA

TAF DFFD 301100Z 3012/0118 08008KT CAVOK
TEMPO 3017/3021 4000 HZ
TEMPO 0106/0110 4000 HZ

Example: see airport list